sensor_id;sensor_type;location;lat;lon;timestamp;P1;durP1;ratioP1;P2;durP2;ratioP2
73452;SDS011;61687;56.232;43.854;2023-04-15T00:00:09;8.25;;;4.30;;
73452;SDS011;61687;56.232;43.854;2023-04-15T00:02:39;6.43;;;4.32;;
73452;SDS011;61687;56.232;43.854;2023-04-15T00:05:05;6.90;;;4.15;;
73452;SDS011;61687;56.232;43.854;2023-04-15T00:07:31;6.30;;;3.40;;
73452;SDS011;61687;56.232;43.854;2023-04-15T00:09:57;8.02;;;4.03;;
73452;SDS011;61687;56.232;43.854;2023-04-15T00:12:24;7.47;;;3.90;;
73452;SDS011;61687;56.232;43.854;2023-04-15T00:14:51;6.60;;;3.67;;
73452;SDS011;61687;56.232;43.854;2023-04-15T00:17:16;6.13;;;4.10;;
73452;SDS011;61687;56.232;43.854;2023-04-15T00:19:42;9.32;;;3.60;;
73452;SDS011;61687;56.232;43.854;2023-04-15T00:22:11;12.93;;;3.53;;
73452;SDS011;61687;56.232;43.854;2023-04-15T00:24:37;8.95;;;3.90;;
73452;SDS011;61687;56.232;43.854;2023-04-15T00:27:04;7.72;;;3.80;;
73452;SDS011;61687;56.232;43.854;2023-04-15T00:29:30;6.63;;;3.75;;
73452;SDS011;61687;56.232;43.854;2023-04-15T00:31:56;9.05;;;4.13;;
73452;SDS011;61687;56.232;43.854;2023-04-15T00:34:22;6.95;;;3.80;;
73452;SDS011;61687;56.232;43.854;2023-04-15T00:36:49;6.22;;;3.72;;
73452;SDS011;61687;56.232;43.854;2023-04-15T00:39:15;8.03;;;3.70;;
73452;SDS011;61687;56.232;43.854;2023-04-15T00:41:42;7.88;;;3.30;;
73452;SDS011;61687;56.232;43.854;2023-04-15T00:44:08;5.95;;;3.15;;
73452;SDS011;61687;56.232;43.854;2023-04-15T00:46:35;10.05;;;4.35;;
73452;SDS011;61687;56.232;43.854;2023-04-15T00:49:03;7.80;;;3.92;;
73452;SDS011;61687;56.232;43.854;2023-04-15T00:51:29;8.60;;;3.42;;
73452;SDS011;61687;56.232;43.854;2023-04-15T00:53:58;12.23;;;4.13;;
73452;SDS011;61687;56.232;43.854;2023-04-15T00:56:25;7.05;;;4.65;;
73452;SDS011;61687;56.232;43.854;2023-04-15T00:58:53;7.90;;;3.35;;
73452;SDS011;61687;56.232;43.854;2023-04-15T01:01:22;8.63;;;4.32;;
73452;SDS011;61687;56.232;43.854;2023-04-15T01:03:50;8.38;;;4.07;;
73452;SDS011;61687;56.232;43.854;2023-04-15T01:06:16;10.70;;;4.38;;
73452;SDS011;61687;56.232;43.854;2023-04-15T01:08:43;10.48;;;4.22;;
73452;SDS011;61687;56.232;43.854;2023-04-15T01:11:13;7.78;;;4.35;;
73452;SDS011;61687;56.232;43.854;2023-04-15T01:13:39;7.25;;;4.35;;
73452;SDS011;61687;56.232;43.854;2023-04-15T01:16:06;10.25;;;3.63;;
73452;SDS011;61687;56.232;43.854;2023-04-15T01:18:33;8.80;;;4.70;;
73452;SDS011;61687;56.232;43.854;2023-04-15T01:21:02;7.10;;;3.75;;
73452;SDS011;61687;56.232;43.854;2023-04-15T01:23:30;7.82;;;4.15;;
73452;SDS011;61687;56.232;43.854;2023-04-15T01:25:56;10.68;;;4.20;;
73452;SDS011;61687;56.232;43.854;2023-04-15T01:28:23;11.20;;;4.95;;
73452;SDS011;61687;56.232;43.854;2023-04-15T01:30:50;10.25;;;3.92;;
73452;SDS011;61687;56.232;43.854;2023-04-15T01:33:30;10.88;;;4.40;;
73452;SDS011;61687;56.232;43.854;2023-04-15T01:36:15;10.95;;;4.07;;
73452;SDS011;61687;56.232;43.854;2023-04-15T01:38:40;8.20;;;4.73;;
73452;SDS011;61687;56.232;43.854;2023-04-15T01:41:06;8.60;;;4.72;;
73452;SDS011;61687;56.232;43.854;2023-04-15T01:43:34;8.00;;;4.78;;
73452;SDS011;61687;56.232;43.854;2023-04-15T01:46:04;9.83;;;5.13;;
73452;SDS011;61687;56.232;43.854;2023-04-15T01:48:32;10.77;;;7.47;;
73452;SDS011;61687;56.232;43.854;2023-04-15T01:51:00;12.80;;;9.15;;
73452;SDS011;61687;56.232;43.854;2023-04-15T01:53:27;13.80;;;8.02;;
73452;SDS011;61687;56.232;43.854;2023-04-15T01:55:54;11.55;;;7.30;;
73452;SDS011;61687;56.232;43.854;2023-04-15T01:58:22;12.80;;;7.00;;
73452;SDS011;61687;56.232;43.854;2023-04-15T02:00:49;11.40;;;7.47;;
73452;SDS011;61687;56.232;43.854;2023-04-15T02:03:16;17.08;;;7.30;;
73452;SDS011;61687;56.232;43.854;2023-04-15T02:05:43;12.80;;;6.03;;
73452;SDS011;61687;56.232;43.854;2023-04-15T02:08:10;13.93;;;5.18;;
73452;SDS011;61687;56.232;43.854;2023-04-15T02:10:38;8.37;;;4.77;;
73452;SDS011;61687;56.232;43.854;2023-04-15T02:13:05;16.05;;;8.27;;
73452;SDS011;61687;56.232;43.854;2023-04-15T02:15:32;15.85;;;8.80;;
73452;SDS011;61687;56.232;43.854;2023-04-15T02:17:59;19.48;;;8.70;;
73452;SDS011;61687;56.232;43.854;2023-04-15T02:20:27;16.67;;;9.45;;
73452;SDS011;61687;56.232;43.854;2023-04-15T02:22:57;26.67;;;10.73;;
73452;SDS011;61687;56.232;43.854;2023-04-15T02:25:25;24.15;;;10.80;;
73452;SDS011;61687;56.232;43.854;2023-04-15T02:27:52;29.17;;;12.90;;
73452;SDS011;61687;56.232;43.854;2023-04-15T02:30:19;30.02;;;10.95;;
73452;SDS011;61687;56.232;43.854;2023-04-15T02:32:46;22.55;;;10.32;;
73452;SDS011;61687;56.232;43.854;2023-04-15T02:35:13;24.37;;;10.17;;
73452;SDS011;61687;56.232;43.854;2023-04-15T02:37:41;23.48;;;10.55;;
73452;SDS011;61687;56.232;43.854;2023-04-15T02:40:12;21.45;;;8.88;;
73452;SDS011;61687;56.232;43.854;2023-04-15T02:42:39;17.50;;;7.75;;
73452;SDS011;61687;56.232;43.854;2023-04-15T02:45:09;23.48;;;8.90;;
73452;SDS011;61687;56.232;43.854;2023-04-15T02:47:39;21.77;;;9.63;;
73452;SDS011;61687;56.232;43.854;2023-04-15T02:50:10;19.42;;;10.25;;
73452;SDS011;61687;56.232;43.854;2023-04-15T02:52:40;18.70;;;8.45;;
73452;SDS011;61687;56.232;43.854;2023-04-15T02:55:08;17.10;;;8.45;;
73452;SDS011;61687;56.232;43.854;2023-04-15T02:57:36;17.92;;;6.63;;
73452;SDS011;61687;56.232;43.854;2023-04-15T03:00:07;15.00;;;4.57;;
73452;SDS011;61687;56.232;43.854;2023-04-15T03:02:40;11.48;;;4.65;;
73452;SDS011;61687;56.232;43.854;2023-04-15T03:05:13;7.72;;;4.43;;
73452;SDS011;61687;56.232;43.854;2023-04-15T03:07:47;12.65;;;5.35;;
73452;SDS011;61687;56.232;43.854;2023-04-15T03:10:14;13.82;;;5.50;;
73452;SDS011;61687;56.232;43.854;2023-04-15T03:12:41;12.43;;;5.10;;
73452;SDS011;61687;56.232;43.854;2023-04-15T03:15:13;10.63;;;4.32;;
73452;SDS011;61687;56.232;43.854;2023-04-15T03:17:44;10.10;;;5.07;;
73452;SDS011;61687;56.232;43.854;2023-04-15T03:20:12;14.27;;;4.50;;
73452;SDS011;61687;56.232;43.854;2023-04-15T03:22:39;9.73;;;5.72;;
73452;SDS011;61687;56.232;43.854;2023-04-15T03:25:07;14.60;;;5.40;;
73452;SDS011;61687;56.232;43.854;2023-04-15T03:27:35;10.80;;;5.03;;
73452;SDS011;61687;56.232;43.854;2023-04-15T03:30:03;14.45;;;5.60;;
73452;SDS011;61687;56.232;43.854;2023-04-15T03:32:36;9.18;;;4.43;;
73452;SDS011;61687;56.232;43.854;2023-04-15T03:35:03;11.32;;;4.85;;
73452;SDS011;61687;56.232;43.854;2023-04-15T03:37:30;13.93;;;5.00;;
73452;SDS011;61687;56.232;43.854;2023-04-15T03:39:57;10.65;;;4.05;;
73452;SDS011;61687;56.232;43.854;2023-04-15T03:42:24;10.45;;;4.70;;
73452;SDS011;61687;56.232;43.854;2023-04-15T03:44:52;9.05;;;3.63;;
73452;SDS011;61687;56.232;43.854;2023-04-15T03:47:19;7.00;;;3.25;;
73452;SDS011;61687;56.232;43.854;2023-04-15T03:49:46;10.57;;;4.00;;
73452;SDS011;61687;56.232;43.854;2023-04-15T03:52:13;7.10;;;2.97;;
73452;SDS011;61687;56.232;43.854;2023-04-15T03:54:40;9.75;;;4.47;;
73452;SDS011;61687;56.232;43.854;2023-04-15T03:57:07;6.15;;;3.70;;
73452;SDS011;61687;56.232;43.854;2023-04-15T03:59:34;5.72;;;4.03;;
73452;SDS011;61687;56.232;43.854;2023-04-15T04:02:01;14.57;;;3.63;;
73452;SDS011;61687;56.232;43.854;2023-04-15T04:04:28;5.18;;;3.03;;
73452;SDS011;61687;56.232;43.854;2023-04-15T04:06:55;7.75;;;3.50;;
73452;SDS011;61687;56.232;43.854;2023-04-15T04:09:22;5.63;;;3.88;;
73452;SDS011;61687;56.232;43.854;2023-04-15T04:11:49;6.80;;;3.97;;
73452;SDS011;61687;56.232;43.854;2023-04-15T04:14:16;4.87;;;2.87;;
73452;SDS011;61687;56.232;43.854;2023-04-15T04:16:43;5.68;;;3.40;;
73452;SDS011;61687;56.232;43.854;2023-04-15T04:19:11;6.72;;;3.80;;
73452;SDS011;61687;56.232;43.854;2023-04-15T04:21:40;5.43;;;3.33;;
73452;SDS011;61687;56.232;43.854;2023-04-15T04:24:07;5.35;;;3.10;;
73452;SDS011;61687;56.232;43.854;2023-04-15T04:26:34;6.43;;;3.80;;
73452;SDS011;61687;56.232;43.854;2023-04-15T04:29:01;8.00;;;3.28;;
73452;SDS011;61687;56.232;43.854;2023-04-15T04:31:28;7.32;;;2.65;;
73452;SDS011;61687;56.232;43.854;2023-04-15T04:33:55;4.50;;;2.83;;
73452;SDS011;61687;56.232;43.854;2023-04-15T04:36:22;8.38;;;3.38;;
73452;SDS011;61687;56.232;43.854;2023-04-15T04:38:49;5.57;;;3.40;;
73452;SDS011;61687;56.232;43.854;2023-04-15T04:41:16;4.55;;;2.75;;
73452;SDS011;61687;56.232;43.854;2023-04-15T04:43:43;7.55;;;3.63;;
73452;SDS011;61687;56.232;43.854;2023-04-15T04:46:10;5.05;;;3.40;;
73452;SDS011;61687;56.232;43.854;2023-04-15T04:48:38;5.15;;;3.28;;
73452;SDS011;61687;56.232;43.854;2023-04-15T04:51:05;4.57;;;3.47;;
73452;SDS011;61687;56.232;43.854;2023-04-15T04:53:33;5.20;;;2.63;;
73452;SDS011;61687;56.232;43.854;2023-04-15T04:56:00;18.35;;;3.53;;
73452;SDS011;61687;56.232;43.854;2023-04-15T04:58:27;4.50;;;2.70;;
73452;SDS011;61687;56.232;43.854;2023-04-15T05:00:54;4.63;;;3.13;;
73452;SDS011;61687;56.232;43.854;2023-04-15T05:03:22;27.27;;;3.90;;
73452;SDS011;61687;56.232;43.854;2023-04-15T05:05:49;4.68;;;3.28;;
73452;SDS011;61687;56.232;43.854;2023-04-15T05:08:16;5.57;;;3.58;;
73452;SDS011;61687;56.232;43.854;2023-04-15T05:10:43;6.15;;;3.35;;
73452;SDS011;61687;56.232;43.854;2023-04-15T05:13:10;10.00;;;3.80;;
73452;SDS011;61687;56.232;43.854;2023-04-15T05:15:37;3.83;;;2.50;;
73452;SDS011;61687;56.232;43.854;2023-04-15T05:18:06;4.85;;;2.92;;
73452;SDS011;61687;56.232;43.854;2023-04-15T05:20:33;7.97;;;3.53;;
73452;SDS011;61687;56.232;43.854;2023-04-15T05:23:00;13.18;;;3.10;;
73452;SDS011;61687;56.232;43.854;2023-04-15T05:25:27;10.32;;;3.47;;
73452;SDS011;61687;56.232;43.854;2023-04-15T05:27:55;6.27;;;3.13;;
73452;SDS011;61687;56.232;43.854;2023-04-15T05:30:22;6.45;;;2.88;;
73452;SDS011;61687;56.232;43.854;2023-04-15T05:32:49;6.43;;;3.90;;
73452;SDS011;61687;56.232;43.854;2023-04-15T05:35:16;5.57;;;3.13;;
73452;SDS011;61687;56.232;43.854;2023-04-15T05:37:44;8.60;;;3.35;;
73452;SDS011;61687;56.232;43.854;2023-04-15T05:40:11;4.90;;;3.27;;
73452;SDS011;61687;56.232;43.854;2023-04-15T05:42:38;7.18;;;3.78;;
73452;SDS011;61687;56.232;43.854;2023-04-15T05:45:06;8.18;;;3.75;;
73452;SDS011;61687;56.232;43.854;2023-04-15T05:47:35;6.00;;;3.22;;
73452;SDS011;61687;56.232;43.854;2023-04-15T05:50:03;9.43;;;3.53;;
73452;SDS011;61687;56.232;43.854;2023-04-15T05:52:30;5.30;;;2.97;;
73452;SDS011;61687;56.232;43.854;2023-04-15T05:54:57;5.55;;;3.15;;
73452;SDS011;61687;56.232;43.854;2023-04-15T05:57:24;6.45;;;4.15;;
73452;SDS011;61687;56.232;43.854;2023-04-15T05:59:51;5.38;;;3.88;;
73452;SDS011;61687;56.232;43.854;2023-04-15T06:02:19;9.20;;;3.88;;
73452;SDS011;61687;56.232;43.854;2023-04-15T06:04:46;5.78;;;4.03;;
73452;SDS011;61687;56.232;43.854;2023-04-15T06:07:13;11.73;;;3.55;;
73452;SDS011;61687;56.232;43.854;2023-04-15T06:09:41;5.45;;;3.53;;
73452;SDS011;61687;56.232;43.854;2023-04-15T06:12:08;7.15;;;3.83;;
73452;SDS011;61687;56.232;43.854;2023-04-15T06:14:37;6.82;;;3.67;;
73452;SDS011;61687;56.232;43.854;2023-04-15T06:17:06;6.75;;;3.95;;
73452;SDS011;61687;56.232;43.854;2023-04-15T06:19:34;8.18;;;4.07;;
73452;SDS011;61687;56.232;43.854;2023-04-15T06:22:02;9.38;;;4.35;;
73452;SDS011;61687;56.232;43.854;2023-04-15T06:24:29;7.95;;;3.92;;
73452;SDS011;61687;56.232;43.854;2023-04-15T06:26:57;10.85;;;4.63;;
73452;SDS011;61687;56.232;43.854;2023-04-15T06:29:24;7.18;;;4.00;;
73452;SDS011;61687;56.232;43.854;2023-04-15T06:31:51;12.02;;;3.88;;
73452;SDS011;61687;56.232;43.854;2023-04-15T06:34:18;13.48;;;4.47;;
73452;SDS011;61687;56.232;43.854;2023-04-15T06:36:45;7.80;;;3.75;;
73452;SDS011;61687;56.232;43.854;2023-04-15T06:39:12;6.97;;;3.50;;
73452;SDS011;61687;56.232;43.854;2023-04-15T06:41:39;6.53;;;4.25;;
73452;SDS011;61687;56.232;43.854;2023-04-15T06:44:07;21.33;;;5.00;;
73452;SDS011;61687;56.232;43.854;2023-04-15T06:46:34;6.68;;;3.03;;
73452;SDS011;61687;56.232;43.854;2023-04-15T06:49:01;8.77;;;3.80;;
73452;SDS011;61687;56.232;43.854;2023-04-15T06:51:29;5.22;;;2.95;;
73452;SDS011;61687;56.232;43.854;2023-04-15T06:53:56;9.57;;;3.97;;
73452;SDS011;61687;56.232;43.854;2023-04-15T06:56:24;5.38;;;2.92;;
73452;SDS011;61687;56.232;43.854;2023-04-15T06:58:51;7.03;;;3.95;;
73452;SDS011;61687;56.232;43.854;2023-04-15T07:01:18;7.70;;;3.17;;
73452;SDS011;61687;56.232;43.854;2023-04-15T07:03:45;9.75;;;3.90;;
73452;SDS011;61687;56.232;43.854;2023-04-15T07:06:12;6.55;;;3.75;;
73452;SDS011;61687;56.232;43.854;2023-04-15T07:08:39;7.37;;;3.33;;
73452;SDS011;61687;56.232;43.854;2023-04-15T07:11:07;9.80;;;3.30;;
73452;SDS011;61687;56.232;43.854;2023-04-15T07:13:34;8.45;;;3.35;;
73452;SDS011;61687;56.232;43.854;2023-04-15T07:16:01;15.45;;;4.03;;
73452;SDS011;61687;56.232;43.854;2023-04-15T07:18:28;8.80;;;4.13;;
73452;SDS011;61687;56.232;43.854;2023-04-15T07:20:56;9.93;;;5.50;;
73452;SDS011;61687;56.232;43.854;2023-04-15T07:23:23;10.75;;;3.40;;
73452;SDS011;61687;56.232;43.854;2023-04-15T07:25:50;9.63;;;3.00;;
73452;SDS011;61687;56.232;43.854;2023-04-15T07:28:17;5.22;;;3.25;;
73452;SDS011;61687;56.232;43.854;2023-04-15T07:30:44;6.93;;;3.10;;
73452;SDS011;61687;56.232;43.854;2023-04-15T07:33:11;8.03;;;3.60;;
73452;SDS011;61687;56.232;43.854;2023-04-15T07:35:39;7.65;;;3.67;;
73452;SDS011;61687;56.232;43.854;2023-04-15T07:38:06;6.68;;;4.10;;
73452;SDS011;61687;56.232;43.854;2023-04-15T07:40:33;6.18;;;4.07;;
73452;SDS011;61687;56.232;43.854;2023-04-15T07:43:00;5.75;;;3.22;;
73452;SDS011;61687;56.232;43.854;2023-04-15T07:45:27;8.47;;;3.83;;
73452;SDS011;61687;56.232;43.854;2023-04-15T07:47:54;5.57;;;3.17;;
73452;SDS011;61687;56.232;43.854;2023-04-15T07:50:22;6.60;;;4.05;;
73452;SDS011;61687;56.232;43.854;2023-04-15T07:52:50;6.10;;;3.47;;
73452;SDS011;61687;56.232;43.854;2023-04-15T07:55:17;7.50;;;4.00;;
73452;SDS011;61687;56.232;43.854;2023-04-15T07:57:47;8.43;;;3.40;;
73452;SDS011;61687;56.232;43.854;2023-04-15T08:00:14;11.20;;;3.60;;
73452;SDS011;61687;56.232;43.854;2023-04-15T08:02:42;5.00;;;3.75;;
73452;SDS011;61687;56.232;43.854;2023-04-15T08:05:09;6.95;;;3.60;;
73452;SDS011;61687;56.232;43.854;2023-04-15T08:07:36;5.80;;;3.20;;
73452;SDS011;61687;56.232;43.854;2023-04-15T08:10:04;4.77;;;2.77;;
73452;SDS011;61687;56.232;43.854;2023-04-15T08:12:31;6.18;;;3.42;;
73452;SDS011;61687;56.232;43.854;2023-04-15T08:14:58;5.57;;;2.95;;
73452;SDS011;61687;56.232;43.854;2023-04-15T08:17:26;12.25;;;3.72;;
73452;SDS011;61687;56.232;43.854;2023-04-15T08:19:53;7.28;;;3.95;;
73452;SDS011;61687;56.232;43.854;2023-04-15T08:22:20;6.40;;;3.33;;
73452;SDS011;61687;56.232;43.854;2023-04-15T08:24:48;5.22;;;3.45;;
73452;SDS011;61687;56.232;43.854;2023-04-15T08:27:15;4.55;;;2.72;;
73452;SDS011;61687;56.232;43.854;2023-04-15T08:29:42;7.28;;;3.60;;
73452;SDS011;61687;56.232;43.854;2023-04-15T08:32:09;7.85;;;3.30;;
73452;SDS011;61687;56.232;43.854;2023-04-15T08:34:36;7.00;;;3.90;;
73452;SDS011;61687;56.232;43.854;2023-04-15T08:37:03;7.82;;;2.95;;
73452;SDS011;61687;56.232;43.854;2023-04-15T08:39:30;4.82;;;2.83;;
73452;SDS011;61687;56.232;43.854;2023-04-15T08:42:00;4.68;;;3.28;;
73452;SDS011;61687;56.232;43.854;2023-04-15T08:44:29;8.60;;;2.60;;
73452;SDS011;61687;56.232;43.854;2023-04-15T08:47:02;6.80;;;3.10;;
73452;SDS011;61687;56.232;43.854;2023-04-15T08:49:34;5.60;;;3.60;;
73452;SDS011;61687;56.232;43.854;2023-04-15T08:52:04;6.47;;;3.60;;
73452;SDS011;61687;56.232;43.854;2023-04-15T08:54:32;6.68;;;3.58;;
73452;SDS011;61687;56.232;43.854;2023-04-15T08:57:00;20.65;;;4.30;;
73452;SDS011;61687;56.232;43.854;2023-04-15T08:59:31;7.70;;;3.10;;
73452;SDS011;61687;56.232;43.854;2023-04-15T09:01:58;5.60;;;3.63;;
73452;SDS011;61687;56.232;43.854;2023-04-15T09:04:25;5.68;;;3.47;;
73452;SDS011;61687;56.232;43.854;2023-04-15T09:06:53;6.40;;;2.80;;
73452;SDS011;61687;56.232;43.854;2023-04-15T09:09:21;8.75;;;3.47;;
73452;SDS011;61687;56.232;43.854;2023-04-15T09:11:48;5.77;;;2.83;;
73452;SDS011;61687;56.232;43.854;2023-04-15T09:14:16;7.82;;;3.25;;
73452;SDS011;61687;56.232;43.854;2023-04-15T09:16:59;6.32;;;2.75;;
73452;SDS011;61687;56.232;43.854;2023-04-15T09:19:27;4.95;;;3.10;;
73452;SDS011;61687;56.232;43.854;2023-04-15T09:21:55;6.75;;;3.78;;
73452;SDS011;61687;56.232;43.854;2023-04-15T09:24:24;7.87;;;3.70;;
73452;SDS011;61687;56.232;43.854;2023-04-15T09:26:59;7.30;;;3.10;;
73452;SDS011;61687;56.232;43.854;2023-04-15T09:29:27;5.68;;;3.35;;
73452;SDS011;61687;56.232;43.854;2023-04-15T09:31:54;10.35;;;3.42;;
73452;SDS011;61687;56.232;43.854;2023-04-15T09:34:21;7.30;;;3.80;;
73452;SDS011;61687;56.232;43.854;2023-04-15T09:37:01;6.03;;;2.90;;
73452;SDS011;61687;56.232;43.854;2023-04-15T09:39:47;5.95;;;3.17;;
73452;SDS011;61687;56.232;43.854;2023-04-15T09:42:16;9.70;;;3.53;;
73452;SDS011;61687;56.232;43.854;2023-04-15T09:44:49;5.88;;;3.40;;
73452;SDS011;61687;56.232;43.854;2023-04-15T09:47:28;5.47;;;3.42;;
73452;SDS011;61687;56.232;43.854;2023-04-15T09:49:57;10.07;;;3.83;;
73452;SDS011;61687;56.232;43.854;2023-04-15T09:52:25;8.07;;;3.28;;
73452;SDS011;61687;56.232;43.854;2023-04-15T09:54:53;28.10;;;4.15;;
73452;SDS011;61687;56.232;43.854;2023-04-15T09:57:22;7.00;;;3.53;;
73452;SDS011;61687;56.232;43.854;2023-04-15T09:59:50;4.68;;;3.10;;
73452;SDS011;61687;56.232;43.854;2023-04-15T10:02:17;8.57;;;2.90;;
73452;SDS011;61687;56.232;43.854;2023-04-15T10:04:47;6.15;;;2.90;;
73452;SDS011;61687;56.232;43.854;2023-04-15T10:07:14;8.20;;;3.95;;
73452;SDS011;61687;56.232;43.854;2023-04-15T10:09:46;11.32;;;4.13;;
73452;SDS011;61687;56.232;43.854;2023-04-15T10:12:16;6.75;;;3.10;;
73452;SDS011;61687;56.232;43.854;2023-04-15T10:14:43;7.63;;;3.20;;
73452;SDS011;61687;56.232;43.854;2023-04-15T10:17:14;5.93;;;3.08;;
73452;SDS011;61687;56.232;43.854;2023-04-15T10:19:43;6.32;;;3.45;;
73452;SDS011;61687;56.232;43.854;2023-04-15T10:22:12;6.35;;;3.00;;
73452;SDS011;61687;56.232;43.854;2023-04-15T10:24:40;5.32;;;3.72;;
73452;SDS011;61687;56.232;43.854;2023-04-15T10:27:09;7.50;;;2.60;;
73452;SDS011;61687;56.232;43.854;2023-04-15T10:29:37;10.18;;;3.50;;
73452;SDS011;61687;56.232;43.854;2023-04-15T10:32:07;6.55;;;3.20;;
73452;SDS011;61687;56.232;43.854;2023-04-15T10:34:36;5.72;;;3.15;;
73452;SDS011;61687;56.232;43.854;2023-04-15T10:37:04;9.30;;;3.13;;
73452;SDS011;61687;56.232;43.854;2023-04-15T10:39:38;7.07;;;3.20;;
73452;SDS011;61687;56.232;43.854;2023-04-15T10:42:14;6.97;;;3.30;;
73452;SDS011;61687;56.232;43.854;2023-04-15T10:44:50;5.57;;;3.83;;
73452;SDS011;61687;56.232;43.854;2023-04-15T10:47:18;7.80;;;3.67;;
73452;SDS011;61687;56.232;43.854;2023-04-15T10:49:48;7.38;;;3.38;;
73452;SDS011;61687;56.232;43.854;2023-04-15T10:52:20;5.80;;;3.17;;
73452;SDS011;61687;56.232;43.854;2023-04-15T10:57:36;6.68;;;3.42;;
73452;SDS011;61687;56.232;43.854;2023-04-15T11:00:09;6.88;;;3.15;;
73452;SDS011;61687;56.232;43.854;2023-04-15T11:02:44;6.20;;;2.92;;
73452;SDS011;61687;56.232;43.854;2023-04-15T11:05:14;6.00;;;2.90;;
73452;SDS011;61687;56.232;43.854;2023-04-15T11:12:44;8.50;;;3.72;;
73452;SDS011;61687;56.232;43.854;2023-04-15T11:15:31;6.75;;;3.50;;
73452;SDS011;61687;56.232;43.854;2023-04-15T11:20:45;11.50;;;3.10;;
73452;SDS011;61687;56.232;43.854;2023-04-15T11:23:13;5.90;;;2.88;;
73452;SDS011;61687;56.232;43.854;2023-04-15T11:25:41;11.10;;;3.25;;
73452;SDS011;61687;56.232;43.854;2023-04-15T11:28:09;10.23;;;3.35;;
73452;SDS011;61687;56.232;43.854;2023-04-15T11:30:38;7.93;;;3.50;;
73452;SDS011;61687;56.232;43.854;2023-04-15T11:33:08;6.13;;;3.08;;
73452;SDS011;61687;56.232;43.854;2023-04-15T11:35:38;6.28;;;3.58;;
73452;SDS011;61687;56.232;43.854;2023-04-15T11:38:08;6.18;;;3.30;;
73452;SDS011;61687;56.232;43.854;2023-04-15T11:40:40;6.90;;;3.55;;
73452;SDS011;61687;56.232;43.854;2023-04-15T11:43:09;8.20;;;3.60;;
73452;SDS011;61687;56.232;43.854;2023-04-15T11:45:48;7.88;;;3.42;;
73452;SDS011;61687;56.232;43.854;2023-04-15T11:48:25;7.32;;;4.35;;
73452;SDS011;61687;56.232;43.854;2023-04-15T11:51:03;10.13;;;4.00;;
73452;SDS011;61687;56.232;43.854;2023-04-15T11:53:41;6.07;;;4.20;;
73452;SDS011;61687;56.232;43.854;2023-04-15T11:56:09;6.43;;;3.70;;
73452;SDS011;61687;56.232;43.854;2023-04-15T11:58:41;6.75;;;3.38;;
73452;SDS011;61687;56.232;43.854;2023-04-15T12:01:07;6.88;;;3.95;;
73452;SDS011;61687;56.232;43.854;2023-04-15T12:03:38;7.82;;;3.80;;
73452;SDS011;61687;56.232;43.854;2023-04-15T12:11:30;8.32;;;3.97;;
73452;SDS011;61687;56.232;43.854;2023-04-15T12:16:43;8.43;;;4.00;;
73452;SDS011;61687;56.232;43.854;2023-04-15T12:19:11;10.15;;;5.13;;
73452;SDS011;61687;56.232;43.854;2023-04-15T12:21:40;6.40;;;3.87;;
73452;SDS011;61687;56.232;43.854;2023-04-15T12:24:09;8.27;;;4.10;;
73452;SDS011;61687;56.232;43.854;2023-04-15T12:26:37;8.45;;;4.03;;
73452;SDS011;61687;56.232;43.854;2023-04-15T12:29:13;7.70;;;4.75;;
73452;SDS011;61687;56.232;43.854;2023-04-15T12:31:47;8.25;;;4.55;;
73452;SDS011;61687;56.232;43.854;2023-04-15T12:34:17;9.47;;;3.97;;
73452;SDS011;61687;56.232;43.854;2023-04-15T12:37:09;8.98;;;4.07;;
73452;SDS011;61687;56.232;43.854;2023-04-15T12:39:40;10.35;;;5.32;;
73452;SDS011;61687;56.232;43.854;2023-04-15T12:42:10;6.72;;;4.57;;
73452;SDS011;61687;56.232;43.854;2023-04-15T12:44:37;8.82;;;4.97;;
73452;SDS011;61687;56.232;43.854;2023-04-15T12:47:04;11.20;;;5.00;;
73452;SDS011;61687;56.232;43.854;2023-04-15T12:49:32;8.18;;;4.07;;
73452;SDS011;61687;56.232;43.854;2023-04-15T12:52:00;13.13;;;4.40;;
73452;SDS011;61687;56.232;43.854;2023-04-15T12:54:28;6.93;;;4.63;;
73452;SDS011;61687;56.232;43.854;2023-04-15T12:56:58;8.88;;;4.80;;
73452;SDS011;61687;56.232;43.854;2023-04-15T12:59:27;9.50;;;4.67;;
73452;SDS011;61687;56.232;43.854;2023-04-15T13:01:53;7.40;;;5.40;;
73452;SDS011;61687;56.232;43.854;2023-04-15T13:04:20;12.00;;;4.68;;
73452;SDS011;61687;56.232;43.854;2023-04-15T13:06:46;12.15;;;4.35;;
73452;SDS011;61687;56.232;43.854;2023-04-15T13:09:12;9.73;;;5.78;;
73452;SDS011;61687;56.232;43.854;2023-04-15T13:11:39;13.40;;;4.97;;
73452;SDS011;61687;56.232;43.854;2023-04-15T13:14:15;8.52;;;4.38;;
73452;SDS011;61687;56.232;43.854;2023-04-15T13:16:41;9.30;;;4.60;;
73452;SDS011;61687;56.232;43.854;2023-04-15T13:19:08;10.00;;;5.00;;
73452;SDS011;61687;56.232;43.854;2023-04-15T13:21:36;8.98;;;5.10;;
73452;SDS011;61687;56.232;43.854;2023-04-15T13:24:03;17.93;;;4.43;;
73452;SDS011;61687;56.232;43.854;2023-04-15T13:26:31;8.18;;;3.83;;
73452;SDS011;61687;56.232;43.854;2023-04-15T13:28:58;6.53;;;4.40;;
73452;SDS011;61687;56.232;43.854;2023-04-15T13:31:25;10.45;;;4.03;;
73452;SDS011;61687;56.232;43.854;2023-04-15T13:33:52;8.07;;;4.97;;
73452;SDS011;61687;56.232;43.854;2023-04-15T13:36:21;10.47;;;4.17;;
73452;SDS011;61687;56.232;43.854;2023-04-15T13:38:49;6.35;;;3.92;;
73452;SDS011;61687;56.232;43.854;2023-04-15T13:41:15;8.80;;;4.18;;
73452;SDS011;61687;56.232;43.854;2023-04-15T13:43:41;5.97;;;4.50;;
73452;SDS011;61687;56.232;43.854;2023-04-15T13:46:07;6.07;;;4.45;;
73452;SDS011;61687;56.232;43.854;2023-04-15T13:48:33;6.30;;;4.23;;
73452;SDS011;61687;56.232;43.854;2023-04-15T13:50:59;6.45;;;3.67;;
73452;SDS011;61687;56.232;43.854;2023-04-15T13:53:25;7.35;;;4.65;;
73452;SDS011;61687;56.232;43.854;2023-04-15T13:55:52;6.47;;;4.18;;
73452;SDS011;61687;56.232;43.854;2023-04-15T13:58:20;11.13;;;5.40;;
73452;SDS011;61687;56.232;43.854;2023-04-15T14:00:46;10.70;;;4.10;;
73452;SDS011;61687;56.232;43.854;2023-04-15T14:03:12;6.97;;;4.60;;
73452;SDS011;61687;56.232;43.854;2023-04-15T14:05:39;7.45;;;4.45;;
73452;SDS011;61687;56.232;43.854;2023-04-15T14:08:08;9.95;;;4.75;;
73452;SDS011;61687;56.232;43.854;2023-04-15T14:10:49;37.22;;;6.35;;
73452;SDS011;61687;56.232;43.854;2023-04-15T14:13:16;6.40;;;4.53;;
73452;SDS011;61687;56.232;43.854;2023-04-15T14:15:44;6.32;;;4.72;;
73452;SDS011;61687;56.232;43.854;2023-04-15T14:18:11;9.00;;;4.82;;
73452;SDS011;61687;56.232;43.854;2023-04-15T14:20:37;9.77;;;4.95;;
73452;SDS011;61687;56.232;43.854;2023-04-15T14:23:03;7.15;;;4.93;;
73452;SDS011;61687;56.232;43.854;2023-04-15T14:25:32;7.70;;;4.83;;
73452;SDS011;61687;56.232;43.854;2023-04-15T14:27:59;7.22;;;4.95;;
73452;SDS011;61687;56.232;43.854;2023-04-15T14:30:26;10.27;;;5.63;;
73452;SDS011;61687;56.232;43.854;2023-04-15T14:32:53;18.05;;;4.80;;
73452;SDS011;61687;56.232;43.854;2023-04-15T14:35:23;6.82;;;4.15;;
73452;SDS011;61687;56.232;43.854;2023-04-15T14:37:53;7.40;;;4.13;;
73452;SDS011;61687;56.232;43.854;2023-04-15T14:40:20;39.78;;;5.82;;
73452;SDS011;61687;56.232;43.854;2023-04-15T14:42:46;10.82;;;4.03;;
73452;SDS011;61687;56.232;43.854;2023-04-15T14:45:12;6.85;;;4.80;;
73452;SDS011;61687;56.232;43.854;2023-04-15T14:47:38;10.07;;;5.22;;
73452;SDS011;61687;56.232;43.854;2023-04-15T14:50:04;4.87;;;3.93;;
73452;SDS011;61687;56.232;43.854;2023-04-15T14:52:30;8.20;;;5.28;;
73452;SDS011;61687;56.232;43.854;2023-04-15T14:55:11;6.82;;;4.85;;